sensor_id;sensor_type;location;lat;lon;timestamp;P1;durP1;ratioP1;P2;durP2;ratioP2
40449;SDS011;41787;53.570;10.032;2023-03-09T00:00:31;5.80;;;4.43;;
40449;SDS011;41787;53.570;10.032;2023-03-09T00:02:58;5.47;;;3.88;;
40449;SDS011;41787;53.570;10.032;2023-03-09T00:05:24;6.55;;;3.83;;
40449;SDS011;41787;53.570;10.032;2023-03-09T00:07:50;5.60;;;3.78;;
40449;SDS011;41787;53.570;10.032;2023-03-09T00:10:18;5.90;;;3.83;;
40449;SDS011;41787;53.570;10.032;2023-03-09T00:12:44;5.53;;;3.47;;
40449;SDS011;41787;53.570;10.032;2023-03-09T00:15:10;7.88;;;4.55;;
40449;SDS011;41787;53.570;10.032;2023-03-09T00:17:36;7.57;;;4.45;;
40449;SDS011;41787;53.570;10.032;2023-03-09T00:20:03;12.13;;;4.63;;
40449;SDS011;41787;53.570;10.032;2023-03-09T00:22:41;6.68;;;4.18;;
40449;SDS011;41787;53.570;10.032;2023-03-09T00:25:07;6.03;;;3.30;;
40449;SDS011;41787;53.570;10.032;2023-03-09T00:27:38;7.25;;;4.35;;
40449;SDS011;41787;53.570;10.032;2023-03-09T00:30:04;6.57;;;3.58;;
40449;SDS011;41787;53.570;10.032;2023-03-09T00:32:30;7.47;;;4.13;;
40449;SDS011;41787;53.570;10.032;2023-03-09T00:34:56;6.22;;;3.67;;
40449;SDS011;41787;53.570;10.032;2023-03-09T00:37:22;7.50;;;3.75;;
40449;SDS011;41787;53.570;10.032;2023-03-09T00:39:48;3.63;;;2.58;;
40449;SDS011;41787;53.570;10.032;2023-03-09T00:42:14;6.05;;;4.20;;
40449;SDS011;41787;53.570;10.032;2023-03-09T00:44:40;6.47;;;3.20;;
40449;SDS011;41787;53.570;10.032;2023-03-09T00:47:06;6.50;;;3.20;;
40449;SDS011;41787;53.570;10.032;2023-03-09T00:49:32;5.43;;;3.55;;
40449;SDS011;41787;53.570;10.032;2023-03-09T00:51:58;8.60;;;3.85;;
40449;SDS011;41787;53.570;10.032;2023-03-09T00:54:24;5.18;;;3.70;;
40449;SDS011;41787;53.570;10.032;2023-03-09T00:56:50;5.65;;;2.72;;
40449;SDS011;41787;53.570;10.032;2023-03-09T00:59:16;9.23;;;3.92;;
40449;SDS011;41787;53.570;10.032;2023-03-09T01:01:42;6.10;;;3.50;;
40449;SDS011;41787;53.570;10.032;2023-03-09T01:04:08;7.60;;;3.60;;
40449;SDS011;41787;53.570;10.032;2023-03-09T01:06:34;5.85;;;3.03;;
40449;SDS011;41787;53.570;10.032;2023-03-09T01:09:00;4.43;;;3.65;;
40449;SDS011;41787;53.570;10.032;2023-03-09T01:11:26;6.57;;;3.58;;
40449;SDS011;41787;53.570;10.032;2023-03-09T01:13:52;4.80;;;3.05;;
40449;SDS011;41787;53.570;10.032;2023-03-09T01:16:18;8.73;;;4.00;;
40449;SDS011;41787;53.570;10.032;2023-03-09T01:18:44;5.32;;;3.80;;
40449;SDS011;41787;53.570;10.032;2023-03-09T01:21:10;9.27;;;3.97;;
40449;SDS011;41787;53.570;10.032;2023-03-09T01:23:37;8.65;;;4.22;;
40449;SDS011;41787;53.570;10.032;2023-03-09T01:26:03;6.15;;;3.92;;
40449;SDS011;41787;53.570;10.032;2023-03-09T01:28:29;6.03;;;4.35;;
40449;SDS011;41787;53.570;10.032;2023-03-09T01:30:55;8.02;;;3.42;;
40449;SDS011;41787;53.570;10.032;2023-03-09T01:33:21;4.00;;;2.95;;
40449;SDS011;41787;53.570;10.032;2023-03-09T01:35:47;6.65;;;4.07;;
40449;SDS011;41787;53.570;10.032;2023-03-09T01:38:13;9.02;;;4.13;;
40449;SDS011;41787;53.570;10.032;2023-03-09T01:40:39;7.53;;;3.55;;
40449;SDS011;41787;53.570;10.032;2023-03-09T01:48:38;6.63;;;4.60;;
40449;SDS011;41787;53.570;10.032;2023-03-09T01:51:04;4.20;;;2.88;;
40449;SDS011;41787;53.570;10.032;2023-03-09T01:53:30;9.02;;;4.60;;
40449;SDS011;41787;53.570;10.032;2023-03-09T01:55:56;4.30;;;2.53;;
40449;SDS011;41787;53.570;10.032;2023-03-09T01:58:23;5.78;;;4.07;;
40449;SDS011;41787;53.570;10.032;2023-03-09T02:00:52;6.88;;;3.53;;
40449;SDS011;41787;53.570;10.032;2023-03-09T02:03:27;3.58;;;2.30;;
40449;SDS011;41787;53.570;10.032;2023-03-09T02:08:26;5.93;;;3.60;;
40449;SDS011;41787;53.570;10.032;2023-03-09T02:10:56;5.28;;;3.58;;
40449;SDS011;41787;53.570;10.032;2023-03-09T02:13:28;6.53;;;3.33;;
40449;SDS011;41787;53.570;10.032;2023-03-09T02:15:54;9.23;;;4.45;;
40449;SDS011;41787;53.570;10.032;2023-03-09T02:18:20;8.07;;;3.25;;
40449;SDS011;41787;53.570;10.032;2023-03-09T02:20:50;6.93;;;3.05;;
40449;SDS011;41787;53.570;10.032;2023-03-09T02:26:06;4.53;;;3.38;;
40449;SDS011;41787;53.570;10.032;2023-03-09T02:28:34;9.38;;;4.00;;
40449;SDS011;41787;53.570;10.032;2023-03-09T02:31:00;6.57;;;3.22;;
40449;SDS011;41787;53.570;10.032;2023-03-09T02:33:27;5.75;;;4.00;;
40449;SDS011;41787;53.570;10.032;2023-03-09T02:35:56;5.05;;;3.47;;
40449;SDS011;41787;53.570;10.032;2023-03-09T02:38:22;6.82;;;3.63;;
40449;SDS011;41787;53.570;10.032;2023-03-09T02:40:48;7.15;;;3.80;;
40449;SDS011;41787;53.570;10.032;2023-03-09T02:43:15;8.80;;;3.75;;
40449;SDS011;41787;53.570;10.032;2023-03-09T02:45:43;7.18;;;3.72;;
40449;SDS011;41787;53.570;10.032;2023-03-09T02:48:09;5.03;;;3.30;;
40449;SDS011;41787;53.570;10.032;2023-03-09T02:50:35;5.60;;;3.58;;
40449;SDS011;41787;53.570;10.032;2023-03-09T02:53:00;5.35;;;3.80;;
40449;SDS011;41787;53.570;10.032;2023-03-09T02:55:27;13.73;;;4.05;;
40449;SDS011;41787;53.570;10.032;2023-03-09T02:57:53;5.90;;;3.63;;
40449;SDS011;41787;53.570;10.032;2023-03-09T03:00:19;8.32;;;3.55;;
40449;SDS011;41787;53.570;10.032;2023-03-09T03:02:49;7.50;;;3.90;;
40449;SDS011;41787;53.570;10.032;2023-03-09T03:05:16;8.43;;;4.18;;
40449;SDS011;41787;53.570;10.032;2023-03-09T03:07:42;5.72;;;4.18;;
40449;SDS011;41787;53.570;10.032;2023-03-09T03:10:08;5.40;;;3.45;;
40449;SDS011;41787;53.570;10.032;2023-03-09T03:12:34;6.93;;;3.63;;
40449;SDS011;41787;53.570;10.032;2023-03-09T03:15:00;6.15;;;3.90;;
40449;SDS011;41787;53.570;10.032;2023-03-09T03:17:26;7.45;;;4.07;;
40449;SDS011;41787;53.570;10.032;2023-03-09T03:19:52;10.40;;;4.10;;
40449;SDS011;41787;53.570;10.032;2023-03-09T03:22:19;4.95;;;3.58;;
40449;SDS011;41787;53.570;10.032;2023-03-09T03:24:45;4.47;;;3.53;;
40449;SDS011;41787;53.570;10.032;2023-03-09T03:27:11;5.35;;;3.80;;
40449;SDS011;41787;53.570;10.032;2023-03-09T03:29:37;4.85;;;3.28;;
40449;SDS011;41787;53.570;10.032;2023-03-09T03:32:03;10.30;;;4.15;;
40449;SDS011;41787;53.570;10.032;2023-03-09T03:34:29;9.25;;;4.20;;
40449;SDS011;41787;53.570;10.032;2023-03-09T03:36:55;6.05;;;4.20;;
40449;SDS011;41787;53.570;10.032;2023-03-09T03:39:21;7.15;;;4.15;;
40449;SDS011;41787;53.570;10.032;2023-03-09T03:41:47;5.85;;;4.05;;
40449;SDS011;41787;53.570;10.032;2023-03-09T03:44:13;9.70;;;3.42;;
40449;SDS011;41787;53.570;10.032;2023-03-09T03:46:39;8.05;;;4.60;;
40449;SDS011;41787;53.570;10.032;2023-03-09T03:49:04;8.18;;;4.45;;
40449;SDS011;41787;53.570;10.032;2023-03-09T03:51:30;6.63;;;3.70;;
40449;SDS011;41787;53.570;10.032;2023-03-09T03:53:56;8.18;;;4.30;;
40449;SDS011;41787;53.570;10.032;2023-03-09T03:56:22;3.70;;;2.78;;
40449;SDS011;41787;53.570;10.032;2023-03-09T03:58:48;6.93;;;4.25;;
40449;SDS011;41787;53.570;10.032;2023-03-09T04:01:14;7.43;;;4.60;;
40449;SDS011;41787;53.570;10.032;2023-03-09T04:03:40;2.50;;;1.77;;
40449;SDS011;41787;53.570;10.032;2023-03-09T04:06:06;9.15;;;4.30;;
40449;SDS011;41787;53.570;10.032;2023-03-09T04:08:32;7.05;;;3.95;;
40449;SDS011;41787;53.570;10.032;2023-03-09T04:10:58;7.68;;;4.18;;
40449;SDS011;41787;53.570;10.032;2023-03-09T04:13:24;3.30;;;2.05;;
40449;SDS011;41787;53.570;10.032;2023-03-09T04:15:50;7.45;;;3.85;;
40449;SDS011;41787;53.570;10.032;2023-03-09T04:18:16;11.43;;;4.43;;
40449;SDS011;41787;53.570;10.032;2023-03-09T04:20:42;3.80;;;2.47;;
40449;SDS011;41787;53.570;10.032;2023-03-09T04:23:09;8.18;;;4.40;;
40449;SDS011;41787;53.570;10.032;2023-03-09T04:25:35;13.27;;;4.90;;
40449;SDS011;41787;53.570;10.032;2023-03-09T04:28:01;8.18;;;5.70;;
40449;SDS011;41787;53.570;10.032;2023-03-09T04:30:27;10.13;;;5.60;;
40449;SDS011;41787;53.570;10.032;2023-03-09T04:32:53;10.10;;;5.75;;
40449;SDS011;41787;53.570;10.032;2023-03-09T04:35:19;16.30;;;6.10;;
40449;SDS011;41787;53.570;10.032;2023-03-09T04:37:45;11.15;;;5.85;;
40449;SDS011;41787;53.570;10.032;2023-03-09T04:40:12;9.70;;;6.10;;
40449;SDS011;41787;53.570;10.032;2023-03-09T04:42:38;9.77;;;4.82;;
40449;SDS011;41787;53.570;10.032;2023-03-09T04:45:04;2.42;;;1.63;;
40449;SDS011;41787;53.570;10.032;2023-03-09T04:47:31;12.93;;;4.03;;
40449;SDS011;41787;53.570;10.032;2023-03-09T04:49:56;11.02;;;6.63;;
40449;SDS011;41787;53.570;10.032;2023-03-09T04:52:23;7.18;;;4.43;;
40449;SDS011;41787;53.570;10.032;2023-03-09T04:54:49;8.35;;;6.28;;
40449;SDS011;41787;53.570;10.032;2023-03-09T04:57:15;11.50;;;6.78;;
40449;SDS011;41787;53.570;10.032;2023-03-09T04:59:42;4.13;;;2.72;;
40449;SDS011;41787;53.570;10.032;2023-03-09T05:02:08;6.75;;;4.63;;
40449;SDS011;41787;53.570;10.032;2023-03-09T05:04:34;8.90;;;6.45;;
40449;SDS011;41787;53.570;10.032;2023-03-09T05:07:01;7.25;;;3.22;;
40449;SDS011;41787;53.570;10.032;2023-03-09T05:09:27;10.45;;;5.63;;
40449;SDS011;41787;53.570;10.032;2023-03-09T05:11:53;7.35;;;4.95;;
40449;SDS011;41787;53.570;10.032;2023-03-09T05:14:19;12.77;;;7.03;;
40449;SDS011;41787;53.570;10.032;2023-03-09T05:16:45;9.90;;;6.10;;
40449;SDS011;41787;53.570;10.032;2023-03-09T05:19:16;10.68;;;6.80;;
40449;SDS011;41787;53.570;10.032;2023-03-09T05:21:42;12.30;;;7.40;;
40449;SDS011;41787;53.570;10.032;2023-03-09T05:24:07;12.85;;;7.03;;
40449;SDS011;41787;53.570;10.032;2023-03-09T05:26:33;14.55;;;7.43;;
40449;SDS011;41787;53.570;10.032;2023-03-09T05:28:59;11.00;;;6.90;;
40449;SDS011;41787;53.570;10.032;2023-03-09T05:31:25;10.55;;;6.75;;
40449;SDS011;41787;53.570;10.032;2023-03-09T05:33:52;9.60;;;6.05;;
40449;SDS011;41787;53.570;10.032;2023-03-09T05:36:18;11.90;;;7.53;;
40449;SDS011;41787;53.570;10.032;2023-03-09T05:38:45;13.93;;;7.68;;
40449;SDS011;41787;53.570;10.032;2023-03-09T05:41:10;14.45;;;8.85;;
40449;SDS011;41787;53.570;10.032;2023-03-09T05:43:36;13.70;;;8.18;;
40449;SDS011;41787;53.570;10.032;2023-03-09T05:46:06;12.45;;;7.68;;
40449;SDS011;41787;53.570;10.032;2023-03-09T05:48:32;11.65;;;7.82;;
40449;SDS011;41787;53.570;10.032;2023-03-09T05:50:59;19.60;;;9.07;;
40449;SDS011;41787;53.570;10.032;2023-03-09T05:53:25;7.22;;;3.72;;
40449;SDS011;41787;53.570;10.032;2023-03-09T05:55:51;13.65;;;7.80;;
40449;SDS011;41787;53.570;10.032;2023-03-09T05:58:17;13.93;;;8.00;;
40449;SDS011;41787;53.570;10.032;2023-03-09T06:00:43;15.98;;;8.60;;
40449;SDS011;41787;53.570;10.032;2023-03-09T06:03:10;13.07;;;6.90;;
40449;SDS011;41787;53.570;10.032;2023-03-09T06:05:36;17.70;;;9.32;;
40449;SDS011;41787;53.570;10.032;2023-03-09T06:08:02;13.98;;;8.35;;
40449;SDS011;41787;53.570;10.032;2023-03-09T06:10:28;16.45;;;6.63;;
40449;SDS011;41787;53.570;10.032;2023-03-09T06:12:54;13.80;;;8.60;;
40449;SDS011;41787;53.570;10.032;2023-03-09T06:15:20;14.80;;;10.02;;
40449;SDS011;41787;53.570;10.032;2023-03-09T06:17:46;14.50;;;8.30;;
40449;SDS011;41787;53.570;10.032;2023-03-09T06:20:12;15.40;;;8.93;;
40449;SDS011;41787;53.570;10.032;2023-03-09T06:22:38;19.40;;;10.00;;
40449;SDS011;41787;53.570;10.032;2023-03-09T06:25:06;15.90;;;9.55;;
40449;SDS011;41787;53.570;10.032;2023-03-09T06:27:33;17.17;;;9.68;;
40449;SDS011;41787;53.570;10.032;2023-03-09T06:29:59;18.95;;;9.82;;
40449;SDS011;41787;53.570;10.032;2023-03-09T06:32:24;16.35;;;9.23;;
40449;SDS011;41787;53.570;10.032;2023-03-09T06:34:50;11.07;;;5.50;;
40449;SDS011;41787;53.570;10.032;2023-03-09T06:37:16;12.68;;;7.75;;
40449;SDS011;41787;53.570;10.032;2023-03-09T06:39:42;9.07;;;4.25;;
40449;SDS011;41787;53.570;10.032;2023-03-09T06:42:08;15.90;;;9.40;;
40449;SDS011;41787;53.570;10.032;2023-03-09T06:44:34;16.30;;;8.98;;
40449;SDS011;41787;53.570;10.032;2023-03-09T06:47:00;14.48;;;7.32;;
40449;SDS011;41787;53.570;10.032;2023-03-09T06:49:26;12.60;;;7.93;;
40449;SDS011;41787;53.570;10.032;2023-03-09T06:51:52;8.07;;;3.85;;
40449;SDS011;41787;53.570;10.032;2023-03-09T06:54:18;13.35;;;6.22;;
40449;SDS011;41787;53.570;10.032;2023-03-09T06:56:44;16.50;;;9.25;;
40449;SDS011;41787;53.570;10.032;2023-03-09T06:59:10;15.40;;;9.00;;
40449;SDS011;41787;53.570;10.032;2023-03-09T07:01:36;17.40;;;8.88;;
40449;SDS011;41787;53.570;10.032;2023-03-09T07:04:02;18.92;;;9.43;;
40449;SDS011;41787;53.570;10.032;2023-03-09T07:06:28;16.42;;;10.13;;
40449;SDS011;41787;53.570;10.032;2023-03-09T07:08:54;18.40;;;9.90;;
40449;SDS011;41787;53.570;10.032;2023-03-09T07:11:20;13.68;;;6.88;;
40449;SDS011;41787;53.570;10.032;2023-03-09T07:13:46;14.32;;;8.63;;
40449;SDS011;41787;53.570;10.032;2023-03-09T07:16:12;17.35;;;8.27;;
40449;SDS011;41787;53.570;10.032;2023-03-09T07:18:38;17.45;;;9.55;;
40449;SDS011;41787;53.570;10.032;2023-03-09T07:21:04;18.65;;;10.43;;
40449;SDS011;41787;53.570;10.032;2023-03-09T07:23:30;18.45;;;10.50;;
40449;SDS011;41787;53.570;10.032;2023-03-09T07:26:00;15.40;;;9.55;;
40449;SDS011;41787;53.570;10.032;2023-03-09T07:28:26;21.00;;;9.85;;
40449;SDS011;41787;53.570;10.032;2023-03-09T07:30:52;18.15;;;9.07;;
40449;SDS011;41787;53.570;10.032;2023-03-09T07:33:18;17.92;;;8.32;;
40449;SDS011;41787;53.570;10.032;2023-03-09T07:35:44;13.93;;;8.40;;
40449;SDS011;41787;53.570;10.032;2023-03-09T07:38:10;18.10;;;9.38;;
40449;SDS011;41787;53.570;10.032;2023-03-09T07:40:36;14.18;;;8.68;;
40449;SDS011;41787;53.570;10.032;2023-03-09T07:43:02;17.13;;;8.95;;
40449;SDS011;41787;53.570;10.032;2023-03-09T07:45:28;18.67;;;9.32;;
40449;SDS011;41787;53.570;10.032;2023-03-09T07:47:54;11.90;;;7.68;;
40449;SDS011;41787;53.570;10.032;2023-03-09T07:50:20;12.38;;;7.30;;
40449;SDS011;41787;53.570;10.032;2023-03-09T07:52:46;13.23;;;8.32;;
40449;SDS011;41787;53.570;10.032;2023-03-09T07:55:12;17.20;;;9.20;;
40449;SDS011;41787;53.570;10.032;2023-03-09T07:57:39;15.45;;;9.07;;
40449;SDS011;41787;53.570;10.032;2023-03-09T08:00:06;16.45;;;9.90;;
40449;SDS011;41787;53.570;10.032;2023-03-09T08:02:37;11.00;;;5.70;;
40449;SDS011;41787;53.570;10.032;2023-03-09T08:05:05;15.00;;;8.27;;
40449;SDS011;41787;53.570;10.032;2023-03-09T08:07:32;13.00;;;8.30;;
40449;SDS011;41787;53.570;10.032;2023-03-09T08:09:58;14.95;;;8.68;;
40449;SDS011;41787;53.570;10.032;2023-03-09T08:12:24;6.85;;;3.33;;
40449;SDS011;41787;53.570;10.032;2023-03-09T08:14:50;15.70;;;8.05;;
40449;SDS011;41787;53.570;10.032;2023-03-09T08:17:16;14.10;;;8.43;;
40449;SDS011;41787;53.570;10.032;2023-03-09T08:19:41;14.43;;;7.90;;
40449;SDS011;41787;53.570;10.032;2023-03-09T08:22:07;13.52;;;7.93;;
40449;SDS011;41787;53.570;10.032;2023-03-09T08:24:33;14.80;;;7.97;;
40449;SDS011;41787;53.570;10.032;2023-03-09T08:26:59;6.40;;;4.18;;
40449;SDS011;41787;53.570;10.032;2023-03-09T08:29:26;14.80;;;7.88;;
40449;SDS011;41787;53.570;10.032;2023-03-09T08:31:52;14.77;;;7.32;;
40449;SDS011;41787;53.570;10.032;2023-03-09T08:34:18;14.15;;;8.65;;
40449;SDS011;41787;53.570;10.032;2023-03-09T08:36:45;13.65;;;8.05;;
40449;SDS011;41787;53.570;10.032;2023-03-09T08:39:11;15.95;;;7.93;;
40449;SDS011;41787;53.570;10.032;2023-03-09T08:41:37;13.20;;;7.47;;
40449;SDS011;41787;53.570;10.032;2023-03-09T08:44:03;14.27;;;8.98;;
40449;SDS011;41787;53.570;10.032;2023-03-09T08:46:29;12.50;;;8.40;;
40449;SDS011;41787;53.570;10.032;2023-03-09T08:48:55;13.60;;;7.15;;
40449;SDS011;41787;53.570;10.032;2023-03-09T08:51:21;17.83;;;7.38;;
40449;SDS011;41787;53.570;10.032;2023-03-09T08:53:47;13.95;;;7.68;;
40449;SDS011;41787;53.570;10.032;2023-03-09T08:56:13;15.65;;;6.75;;
40449;SDS011;41787;53.570;10.032;2023-03-09T08:58:39;18.85;;;8.75;;
40449;SDS011;41787;53.570;10.032;2023-03-09T09:01:06;12.38;;;7.63;;
40449;SDS011;41787;53.570;10.032;2023-03-09T09:03:34;7.80;;;5.50;;
40449;SDS011;41787;53.570;10.032;2023-03-09T09:06:07;3.30;;;2.28;;
40449;SDS011;41787;53.570;10.032;2023-03-09T09:08:33;13.57;;;7.63;;
40449;SDS011;41787;53.570;10.032;2023-03-09T09:10:59;13.65;;;7.03;;
40449;SDS011;41787;53.570;10.032;2023-03-09T09:13:25;13.30;;;7.47;;
40449;SDS011;41787;53.570;10.032;2023-03-09T09:15:52;12.27;;;6.35;;
40449;SDS011;41787;53.570;10.032;2023-03-09T09:18:18;11.68;;;6.78;;
40449;SDS011;41787;53.570;10.032;2023-03-09T09:20:44;13.52;;;7.45;;
40449;SDS011;41787;53.570;10.032;2023-03-09T09:23:10;11.70;;;7.18;;
40449;SDS011;41787;53.570;10.032;2023-03-09T09:25:36;14.88;;;6.88;;
40449;SDS011;41787;53.570;10.032;2023-03-09T09:28:02;11.93;;;6.72;;
40449;SDS011;41787;53.570;10.032;2023-03-09T09:30:28;10.30;;;5.43;;
40449;SDS011;41787;53.570;10.032;2023-03-09T09:32:57;8.82;;;6.22;;
40449;SDS011;41787;53.570;10.032;2023-03-09T09:35:23;7.85;;;5.82;;
40449;SDS011;41787;53.570;10.032;2023-03-09T09:37:49;9.02;;;5.72;;
40449;SDS011;41787;53.570;10.032;2023-03-09T09:40:17;9.00;;;5.20;;
40449;SDS011;41787;53.570;10.032;2023-03-09T09:42:43;11.30;;;5.95;;
40449;SDS011;41787;53.570;10.032;2023-03-09T09:45:22;9.48;;;6.13;;
40449;SDS011;41787;53.570;10.032;2023-03-09T09:47:49;10.18;;;6.85;;
40449;SDS011;41787;53.570;10.032;2023-03-09T09:50:15;10.70;;;5.72;;
40449;SDS011;41787;53.570;10.032;2023-03-09T09:52:45;9.40;;;5.80;;
40449;SDS011;41787;53.570;10.032;2023-03-09T09:57:44;12.07;;;6.50;;
40449;SDS011;41787;53.570;10.032;2023-03-09T10:00:15;10.98;;;5.80;;
40449;SDS011;41787;53.570;10.032;2023-03-09T10:05:17;9.80;;;5.90;;
40449;SDS011;41787;53.570;10.032;2023-03-09T10:07:45;17.83;;;7.05;;
40449;SDS011;41787;53.570;10.032;2023-03-09T10:10:22;11.77;;;6.70;;
40449;SDS011;41787;53.570;10.032;2023-03-09T10:12:50;11.60;;;6.00;;
40449;SDS011;41787;53.570;10.032;2023-03-09T10:15:25;10.93;;;5.88;;
40449;SDS011;41787;53.570;10.032;2023-03-09T10:17:54;8.38;;;5.65;;
40449;SDS011;41787;53.570;10.032;2023-03-09T10:20:23;7.78;;;5.28;;
40449;SDS011;41787;53.570;10.032;2023-03-09T10:22:49;15.27;;;5.80;;
40449;SDS011;41787;53.570;10.032;2023-03-09T10:25:18;10.23;;;6.80;;
40449;SDS011;41787;53.570;10.032;2023-03-09T10:32:39;9.55;;;5.65;;
40449;SDS011;41787;53.570;10.032;2023-03-09T10:35:18;9.98;;;6.30;;
40449;SDS011;41787;53.570;10.032;2023-03-09T10:37:44;10.52;;;6.00;;
40449;SDS011;41787;53.570;10.032;2023-03-09T10:40:21;12.18;;;5.15;;
40449;SDS011;41787;53.570;10.032;2023-03-09T10:42:48;10.82;;;6.25;;
40449;SDS011;41787;53.570;10.032;2023-03-09T10:45:27;10.55;;;6.22;;
40449;SDS011;41787;53.570;10.032;2023-03-09T10:48:03;10.35;;;5.88;;
40449;SDS011;41787;53.570;10.032;2023-03-09T10:50:35;8.18;;;5.72;;
40449;SDS011;41787;53.570;10.032;2023-03-09T10:53:16;11.88;;;6.20;;
40449;SDS011;41787;53.570;10.032;2023-03-09T10:55:47;6.13;;;3.78;;
40449;SDS011;41787;53.570;10.032;2023-03-09T10:58:14;7.45;;;3.70;;
40449;SDS011;41787;53.570;10.032;2023-03-09T11:00:52;6.75;;;3.92;;
40449;SDS011;41787;53.570;10.032;2023-03-09T11:03:22;9.48;;;5.43;;
40449;SDS011;41787;53.570;10.032;2023-03-09T11:05:48;8.10;;;5.07;;
40449;SDS011;41787;53.570;10.032;2023-03-09T11:08:25;12.05;;;6.32;;
40449;SDS011;41787;53.570;10.032;2023-03-09T11:11:04;9.52;;;4.75;;
40449;SDS011;41787;53.570;10.032;2023-03-09T11:13:31;10.20;;;6.03;;
40449;SDS011;41787;53.570;10.032;2023-03-09T11:16:12;12.88;;;6.10;;
40449;SDS011;41787;53.570;10.032;2023-03-09T11:18:38;8.80;;;5.35;;
40449;SDS011;41787;53.570;10.032;2023-03-09T11:21:04;9.48;;;6.13;;
40449;SDS011;41787;53.570;10.032;2023-03-09T11:23:52;10.35;;;5.72;;
40449;SDS011;41787;53.570;10.032;2023-03-09T11:26:19;10.38;;;5.82;;
40449;SDS011;41787;53.570;10.032;2023-03-09T11:31:18;9.93;;;6.35;;
40449;SDS011;41787;53.570;10.032;2023-03-09T11:33:45;9.57;;;6.18;;
40449;SDS011;41787;53.570;10.032;2023-03-09T11:36:13;10.98;;;6.28;;
40449;SDS011;41787;53.570;10.032;2023-03-09T11:38:40;9.93;;;6.93;;
40449;SDS011;41787;53.570;10.032;2023-03-09T11:41:14;9.30;;;5.97;;
40449;SDS011;41787;53.570;10.032;2023-03-09T11:43:42;10.02;;;5.90;;
40449;SDS011;41787;53.570;10.032;2023-03-09T11:46:11;7.97;;;5.65;;
40449;SDS011;41787;53.570;10.032;2023-03-09T11:48:43;5.47;;;4.55;;
40449;SDS011;41787;53.570;10.032;2023-03-09T11:51:11;8.77;;;6.47;;
40449;SDS011;41787;53.570;10.032;2023-03-09T11:58:35;10.73;;;6.03;;
40449;SDS011;41787;53.570;10.032;2023-03-09T12:03:49;5.82;;;3.47;;
40449;SDS011;41787;53.570;10.032;2023-03-09T12:06:23;8.90;;;5.63;;
40449;SDS011;41787;53.570;10.032;2023-03-09T12:08:51;4.88;;;2.88;;
40449;SDS011;41787;53.570;10.032;2023-03-09T12:11:27;8.20;;;4.10;;
40449;SDS011;41787;53.570;10.032;2023-03-09T12:16:33;13.73;;;6.22;;
40449;SDS011;41787;53.570;10.032;2023-03-09T12:21:34;10.18;;;5.68;;
40449;SDS011;41787;53.570;10.032;2023-03-09T12:24:02;12.73;;;6.57;;
40449;SDS011;41787;53.570;10.032;2023-03-09T12:26:29;8.13;;;4.57;;
40449;SDS011;41787;53.570;10.032;2023-03-09T12:29:00;6.93;;;5.10;;
40449;SDS011;41787;53.570;10.032;2023-03-09T12:31:28;7.82;;;4.93;;
40449;SDS011;41787;53.570;10.032;2023-03-09T12:36:24;7.93;;;5.40;;
40449;SDS011;41787;53.570;10.032;2023-03-09T12:47:21;7.50;;;4.78;;
40449;SDS011;41787;53.570;10.032;2023-03-09T12:55:19;7.82;;;4.82;;
40449;SDS011;41787;53.570;10.032;2023-03-09T12:57:46;8.55;;;5.80;;
40449;SDS011;41787;53.570;10.032;2023-03-09T13:00:23;8.30;;;5.25;;
40449;SDS011;41787;53.570;10.032;2023-03-09T13:02:54;7.97;;;5.43;;
40449;SDS011;41787;53.570;10.032;2023-03-09T13:05:25;9.65;;;5.50;;
40449;SDS011;41787;53.570;10.032;2023-03-09T13:07:57;8.07;;;5.27;;
40449;SDS011;41787;53.570;10.032;2023-03-09T13:10:27;7.32;;;5.00;;
40449;SDS011;41787;53.570;10.032;2023-03-09T13:12:54;9.32;;;4.70;;
40449;SDS011;41787;53.570;10.032;2023-03-09T13:15:21;9.90;;;5.35;;
40449;SDS011;41787;53.570;10.032;2023-03-09T13:18:10;6.70;;;5.00;;
40449;SDS011;41787;53.570;10.032;2023-03-09T13:20:37;8.05;;;5.72;;
40449;SDS011;41787;53.570;10.032;2023-03-09T13:23:12;7.20;;;5.03;;
40449;SDS011;41787;53.570;10.032;2023-03-09T13:25:40;9.73;;;6.35;;
40449;SDS011;41787;53.570;10.032;2023-03-09T13:28:20;7.72;;;5.10;;
40449;SDS011;41787;53.570;10.032;2023-03-09T13:33:21;11.48;;;5.32;;
40449;SDS011;41787;53.570;10.032;2023-03-09T13:35:55;6.38;;;4.97;;
40449;SDS011;41787;53.570;10.032;2023-03-09T13:38:26;7.10;;;5.18;;
40449;SDS011;41787;53.570;10.032;2023-03-09T13:40:54;7.57;;;4.80;;
40449;SDS011;41787;53.570;10.032;2023-03-09T13:43:22;7.80;;;5.53;;
40449;SDS011;41787;53.570;10.032;2023-03-09T13:45:53;5.97;;;4.85;;
40449;SDS011;41787;53.570;10.032;2023-03-09T13:48:20;7.68;;;5.32;;
40449;SDS011;41787;53.570;10.032;2023-03-09T13:50:49;8.30;;;5.28;;
40449;SDS011;41787;53.570;10.032;2023-03-09T13:55:41;12.35;;;5.63;;
40449;SDS011;41787;53.570;10.032;2023-03-09T13:58:19;7.85;;;5.35;;
40449;SDS011;41787;53.570;10.032;2023-03-09T14:00:50;10.27;;;5.00;;
40449;SDS011;41787;53.570;10.032;2023-03-09T14:03:17;7.25;;;5.13;;
40449;SDS011;41787;53.570;10.032;2023-03-09T14:05:51;9.00;;;5.55;;
40449;SDS011;41787;53.570;10.032;2023-03-09T14:08:19;6.65;;;5.05;;
40449;SDS011;41787;53.570;10.032;2023-03-09T14:10:46;7.03;;;4.88;;
40449;SDS011;41787;53.570;10.032;2023-03-09T14:13:20;8.40;;;4.85;;
40449;SDS011;41787;53.570;10.032;2023-03-09T14:15:49;8.82;;;4.93;;
40449;SDS011;41787;53.570;10.032;2023-03-09T14:20:52;7.28;;;4.93;;
40449;SDS011;41787;53.570;10.032;2023-03-09T14:26:03;9.68;;;5.00;;
40449;SDS011;41787;53.570;10.032;2023-03-09T14:28:30;7.10;;;4.47;;
40449;SDS011;41787;53.570;10.032;2023-03-09T14:31:18;7.75;;;5.40;;
40449;SDS011;41787;53.570;10.032;2023-03-09T14:33:54;10.40;;;5.55;;
40449;SDS011;41787;53.570;10.032;2023-03-09T14:36:21;8.98;;;4.80;;
40449;SDS011;41787;53.570;10.032;2023-03-09T14:38:57;8.13;;;4.47;;
40449;SDS011;41787;53.570;10.032;2023-03-09T14:41:27;5.95;;;4.32;;
40449;SDS011;41787;53.570;10.032;2023-03-09T14:43:54;7.95;;;5.22;;
40449;SDS011;41787;53.570;10.032;2023-03-09T14:46:21;11.07;;;4.90;;
40449;SDS011;41787;53.570;10.032;2023-03-09T14:48:48;6.93;;;4.80;;
40449;SDS011;41787;53.570;10.032;2023-03-09T14:51:17;7.78;;;4.65;;
40449;SDS011;41787;53.570;10.032;2023-03-09T14:53:54;7.57;;;4.75;;
40449;SDS011;41787;53.570;10.032;2023-03-09T14:56:20;8.32;;;5.55;;
40449;SDS011;41787;53.570;10.032;2023-03-09T14:58:47;6.28;;;4.53;;
40449;SDS011;41787;53.570;10.032;2023-03-09T15:01:13;8.73;;;4.45;;
40449;SDS011;41787;53.570;10.032;2023-03-09T15:03:39;6.60;;;4.82;;
40449;SDS011;41787;53.570;10.032;2023-03-09T15:06:05;6.13;;;4.60;;
40449;SDS011;41787;53.570;10.032;2023-03-09T15:08:31;6.10;;;4.78;;
40449;SDS011;41787;53.570;10.032;2023-03-09T15:10:57;8.35;;;4.78;;
40449;SDS011;41787;53.570;10.032;2023-03-09T15:13:24;10.70;;;5.25;;
40449;SDS011;41787;53.570;10.032;2023-03-09T15:15:50;6.63;;;5.15;;
40449;SDS011;41787;53.570;10.032;2023-03-09T15:18:16;8.27;;;5.03;;
40449;SDS011;41787;53.570;10.032;2023-03-09T15:20:42;6.60;;;5.10;;
40449;SDS011;41787;53.570;10.032;2023-03-09T15:23:08;8.13;;;5.38;;
40449;SDS011;41787;53.570;10.032;2023-03-09T15:25:34;7.97;;;5.07;;
40449;SDS011;41787;53.570;10.032;2023-03-09T15:28:00;9.43;;;5.93;;
40449;SDS011;41787;53.570;10.032;2023-03-09T15:30:26;8.05;;;5.30;;
40449;SDS011;41787;53.570;10.032;2023-03-09T15:32:52;9.02;;;5.80;;